CYAW/YAW METAR and TAF weather

Enter ICAO airport designator
Station Type Date Time Source
CYAW METAR 2020/07/02 21:00 UTC NOAA

CYAW 022100Z 22011KT 15SM FEW040 FEW250 23/17 A2971 RMK CU1CI1 DA1641FT SLP060


Station Type Date Time Source
CYAW Decoded METAR 2020/07/02 21:00 UTC NOAA

Shearwater, N. S., Canada (CYAW) 44-38N 063-30W 51M
Jul 02, 2020 - 05:00 PM EDT / 2020.07.02 2100 UTC
Wind: from the SW (220 degrees) at 13 MPH (11 KT):0
Visibility: 15 mile(s):0
Sky conditions: mostly clear
Temperature: 73 F (23 C)
Dew Point: 62 F (17 C)
Relative Humidity: 68%
Pressure (altimeter): 29.71 in. Hg (1006 hPa)
ob: CYAW 022100Z 22011KT 15SM FEW040 FEW250 23/17 A2971 RMK CU1CI1 DA1641FT SLP060
cycle: 21

Station Type Date Time Source
CYAW TAF 2020/07/02 18:35 UTC NOAA

TAF CYAW 021730Z 0218/0306 20010KT P6SM FEW030
FM022200 24008KT P6SM BKN050
BECMG 0301/0303 33005KT
FM030400 33005KT P6SM SCT015 OVC030
RMK NXT FCST BY 030000Z

Example: see airport list